sensor_id;sensor_type;location;lat;lon;timestamp;temperature;humidity
79026;DHT22;68425;44.716;37.756;2023-03-14T00:00:44;25.07;35.66
79026;DHT22;68425;44.716;37.756;2023-03-14T00:01:46;25.07;36.17
79026;DHT22;68425;44.716;37.756;2023-03-14T00:02:54;25.06;35.59
79026;DHT22;68425;44.716;37.756;2023-03-14T00:03:55;25.07;35.72
79026;DHT22;68425;44.716;37.756;2023-03-14T00:04:56;25.07;36.41
79026;DHT22;68425;44.716;37.756;2023-03-14T00:06:02;25.05;35.54
79026;DHT22;68425;44.716;37.756;2023-03-14T00:07:03;25.05;35.78
79026;DHT22;68425;44.716;37.756;2023-03-14T00:08:05;25.04;35.73
79026;DHT22;68425;44.716;37.756;2023-03-14T00:09:07;25.06;36.16
79026;DHT22;68425;44.716;37.756;2023-03-14T00:10:11;25.07;35.58
79026;DHT22;68425;44.716;37.756;2023-03-14T00:11:18;25.07;35.56
79026;DHT22;68425;44.716;37.756;2023-03-14T00:12:20;25.08;36.12
79026;DHT22;68425;44.716;37.756;2023-03-14T00:13:21;25.06;35.80
79026;DHT22;68425;44.716;37.756;2023-03-14T00:14:23;25.05;35.29
79026;DHT22;68425;44.716;37.756;2023-03-14T00:15:24;25.05;36.10
79026;DHT22;68425;44.716;37.756;2023-03-14T00:16:26;25.06;35.89
79026;DHT22;68425;44.716;37.756;2023-03-14T00:17:27;25.05;35.47
79026;DHT22;68425;44.716;37.756;2023-03-14T00:18:29;25.04;35.41
79026;DHT22;68425;44.716;37.756;2023-03-14T00:19:30;25.03;35.12
79026;DHT22;68425;44.716;37.756;2023-03-14T00:20:31;25.05;35.69
79026;DHT22;68425;44.716;37.756;2023-03-14T00:21:33;25.07;35.98
79026;DHT22;68425;44.716;37.756;2023-03-14T00:22:35;25.06;35.44
79026;DHT22;68425;44.716;37.756;2023-03-14T00:23:38;25.05;35.14
79026;DHT22;68425;44.716;37.756;2023-03-14T00:24:40;25.06;36.00
79026;DHT22;68425;44.716;37.756;2023-03-14T00:25:41;25.05;36.02
79026;DHT22;68425;44.716;37.756;2023-03-14T00:26:42;25.05;35.82
79026;DHT22;68425;44.716;37.756;2023-03-14T00:27:44;25.04;35.31
79026;DHT22;68425;44.716;37.756;2023-03-14T00:28:51;25.03;35.36
79026;DHT22;68425;44.716;37.756;2023-03-14T00:29:53;25.04;35.77
79026;DHT22;68425;44.716;37.756;2023-03-14T00:30:55;25.05;35.34
79026;DHT22;68425;44.716;37.756;2023-03-14T00:31:57;25.05;35.63
79026;DHT22;68425;44.716;37.756;2023-03-14T00:32:58;25.05;35.25
79026;DHT22;68425;44.716;37.756;2023-03-14T00:33:59;25.03;35.39
79026;DHT22;68425;44.716;37.756;2023-03-14T00:35:00;25.03;35.63
79026;DHT22;68425;44.716;37.756;2023-03-14T00:36:11;25.03;35.85
79026;DHT22;68425;44.716;37.756;2023-03-14T00:37:13;25.05;35.71
79026;DHT22;68425;44.716;37.756;2023-03-14T00:38:15;25.05;35.74
79026;DHT22;68425;44.716;37.756;2023-03-14T00:39:16;25.05;36.02
79026;DHT22;68425;44.716;37.756;2023-03-14T00:40:17;25.04;35.86
79026;DHT22;68425;44.716;37.756;2023-03-14T00:41:21;25.03;36.02
79026;DHT22;68425;44.716;37.756;2023-03-14T00:42:25;25.03;36.00
79026;DHT22;68425;44.716;37.756;2023-03-14T00:43:27;25.05;36.32
79026;DHT22;68425;44.716;37.756;2023-03-14T00:44:29;25.07;36.23
79026;DHT22;68425;44.716;37.756;2023-03-14T00:45:30;25.08;36.03
79026;DHT22;68425;44.716;37.756;2023-03-14T00:46:32;25.08;35.93
79026;DHT22;68425;44.716;37.756;2023-03-14T00:47:33;25.08;35.79
79026;DHT22;68425;44.716;37.756;2023-03-14T00:48:35;25.09;35.95
79026;DHT22;68425;44.716;37.756;2023-03-14T00:49:36;25.10;35.82
79026;DHT22;68425;44.716;37.756;2023-03-14T00:50:37;25.12;35.89
79026;DHT22;68425;44.716;37.756;2023-03-14T00:51:39;25.14;35.69
79026;DHT22;68425;44.716;37.756;2023-03-14T00:52:40;25.12;35.73
79026;DHT22;68425;44.716;37.756;2023-03-14T00:53:41;25.12;35.85
79026;DHT22;68425;44.716;37.756;2023-03-14T00:54:43;25.13;35.95
79026;DHT22;68425;44.716;37.756;2023-03-14T00:55:44;25.13;35.84
79026;DHT22;68425;44.716;37.756;2023-03-14T00:56:46;25.14;35.63
79026;DHT22;68425;44.716;37.756;2023-03-14T00:57:47;25.14;35.40
79026;DHT22;68425;44.716;37.756;2023-03-14T00:58:49;25.15;35.89
79026;DHT22;68425;44.716;37.756;2023-03-14T00:59:50;25.15;35.59
79026;DHT22;68425;44.716;37.756;2023-03-14T01:00:52;25.16;35.57
79026;DHT22;68425;44.716;37.756;2023-03-14T01:01:53;25.16;35.60
79026;DHT22;68425;44.716;37.756;2023-03-14T01:02:55;25.16;35.66
79026;DHT22;68425;44.716;37.756;2023-03-14T01:03:58;25.17;35.77
79026;DHT22;68425;44.716;37.756;2023-03-14T01:04:59;25.18;35.82
79026;DHT22;68425;44.716;37.756;2023-03-14T01:06:15;25.20;35.56
79026;DHT22;68425;44.716;37.756;2023-03-14T01:07:17;25.22;35.60
79026;DHT22;68425;44.716;37.756;2023-03-14T01:08:18;25.21;35.58
79026;DHT22;68425;44.716;37.756;2023-03-14T01:09:20;25.22;35.15
79026;DHT22;68425;44.716;37.756;2023-03-14T01:10:22;25.22;35.23
79026;DHT22;68425;44.716;37.756;2023-03-14T01:11:29;25.20;35.50
79026;DHT22;68425;44.716;37.756;2023-03-14T01:12:32;25.21;35.52
79026;DHT22;68425;44.716;37.756;2023-03-14T01:13:33;25.22;35.59
79026;DHT22;68425;44.716;37.756;2023-03-14T01:14:37;25.21;35.33
79026;DHT22;68425;44.716;37.756;2023-03-14T01:15:38;25.21;35.43
79026;DHT22;68425;44.716;37.756;2023-03-14T01:16:40;25.22;35.44
79026;DHT22;68425;44.716;37.756;2023-03-14T01:17:41;25.22;35.45
79026;DHT22;68425;44.716;37.756;2023-03-14T01:18:44;25.23;35.40
79026;DHT22;68425;44.716;37.756;2023-03-14T01:19:45;25.22;35.37
79026;DHT22;68425;44.716;37.756;2023-03-14T01:20:46;25.23;35.69
79026;DHT22;68425;44.716;37.756;2023-03-14T01:21:48;25.22;35.33
79026;DHT22;68425;44.716;37.756;2023-03-14T01:22:49;25.21;35.49
79026;DHT22;68425;44.716;37.756;2023-03-14T01:23:53;25.21;35.17
79026;DHT22;68425;44.716;37.756;2023-03-14T01:24:54;25.22;35.18
79026;DHT22;68425;44.716;37.756;2023-03-14T01:25:56;25.21;34.78
79026;DHT22;68425;44.716;37.756;2023-03-14T01:26:57;25.22;34.83
79026;DHT22;68425;44.716;37.756;2023-03-14T01:28:00;25.22;35.26
79026;DHT22;68425;44.716;37.756;2023-03-14T01:29:02;25.24;34.95
79026;DHT22;68425;44.716;37.756;2023-03-14T01:30:06;25.24;35.21
79026;DHT22;68425;44.716;37.756;2023-03-14T01:31:10;25.24;34.92
79026;DHT22;68425;44.716;37.756;2023-03-14T01:32:11;25.27;35.18
79026;DHT22;68425;44.716;37.756;2023-03-14T01:33:13;25.27;35.17
79026;DHT22;68425;44.716;37.756;2023-03-14T01:34:18;25.27;35.15
79026;DHT22;68425;44.716;37.756;2023-03-14T01:35:20;25.28;35.07
79026;DHT22;68425;44.716;37.756;2023-03-14T01:36:21;25.28;35.08
79026;DHT22;68425;44.716;37.756;2023-03-14T01:37:22;25.27;35.26
79026;DHT22;68425;44.716;37.756;2023-03-14T01:38:24;25.25;35.09
79026;DHT22;68425;44.716;37.756;2023-03-14T01:39:25;25.24;34.99
79026;DHT22;68425;44.716;37.756;2023-03-14T01:40:26;25.24;35.24
79026;DHT22;68425;44.716;37.756;2023-03-14T01:41:28;25.23;35.15
79026;DHT22;68425;44.716;37.756;2023-03-14T01:42:32;25.21;35.60
79026;DHT22;68425;44.716;37.756;2023-03-14T01:43:34;25.23;35.12
79026;DHT22;68425;44.716;37.756;2023-03-14T01:47:07;25.24;35.04
79026;DHT22;68425;44.716;37.756;2023-03-14T01:48:08;25.23;34.86
79026;DHT22;68425;44.716;37.756;2023-03-14T01:50:26;25.22;34.92
79026;DHT22;68425;44.716;37.756;2023-03-14T01:52:47;25.20;34.93
79026;DHT22;68425;44.716;37.756;2023-03-14T01:53:54;25.19;34.86
79026;DHT22;68425;44.716;37.756;2023-03-14T01:55:02;25.18;34.86
79026;DHT22;68425;44.716;37.756;2023-03-14T01:56:05;25.19;34.70
79026;DHT22;68425;44.716;37.756;2023-03-14T01:57:08;25.19;34.82
79026;DHT22;68425;44.716;37.756;2023-03-14T01:58:12;25.19;34.94
79026;DHT22;68425;44.716;37.756;2023-03-14T01:59:13;25.17;34.77
79026;DHT22;68425;44.716;37.756;2023-03-14T02:00:18;25.15;34.96
79026;DHT22;68425;44.716;37.756;2023-03-14T02:01:24;25.14;35.05
79026;DHT22;68425;44.716;37.756;2023-03-14T02:02:27;25.14;34.95
79026;DHT22;68425;44.716;37.756;2023-03-14T02:03:30;25.14;34.82
79026;DHT22;68425;44.716;37.756;2023-03-14T02:04:34;25.14;34.85
79026;DHT22;68425;44.716;37.756;2023-03-14T02:05:39;25.12;34.93
79026;DHT22;68425;44.716;37.756;2023-03-14T02:07:18;25.14;34.91
79026;DHT22;68425;44.716;37.756;2023-03-14T02:08:31;25.14;34.85
79026;DHT22;68425;44.716;37.756;2023-03-14T02:09:38;25.14;34.73
79026;DHT22;68425;44.716;37.756;2023-03-14T02:10:45;25.13;34.76
79026;DHT22;68425;44.716;37.756;2023-03-14T02:11:47;25.14;34.79
79026;DHT22;68425;44.716;37.756;2023-03-14T02:13:04;25.12;34.77
79026;DHT22;68425;44.716;37.756;2023-03-14T02:14:33;25.13;34.74
79026;DHT22;68425;44.716;37.756;2023-03-14T02:15:55;25.14;34.70
79026;DHT22;68425;44.716;37.756;2023-03-14T02:17:17;25.13;34.90
79026;DHT22;68425;44.716;37.756;2023-03-14T02:18:37;25.13;34.65
79026;DHT22;68425;44.716;37.756;2023-03-14T02:25:58;25.06;34.79
79026;DHT22;68425;44.716;37.756;2023-03-14T02:27:07;25.04;34.95
79026;DHT22;68425;44.716;37.756;2023-03-14T02:28:12;25.04;34.63
79026;DHT22;68425;44.716;37.756;2023-03-14T02:29:14;25.02;34.71
79026;DHT22;68425;44.716;37.756;2023-03-14T02:30:25;25.00;34.82
79026;DHT22;68425;44.716;37.756;2023-03-14T02:31:27;25.02;34.87
79026;DHT22;68425;44.716;37.756;2023-03-14T02:32:31;25.00;34.86
79026;DHT22;68425;44.716;37.756;2023-03-14T02:33:33;24.99;34.80
79026;DHT22;68425;44.716;37.756;2023-03-14T02:34:41;24.99;34.88
79026;DHT22;68425;44.716;37.756;2023-03-14T02:35:58;24.98;34.76
79026;DHT22;68425;44.716;37.756;2023-03-14T02:37:00;24.99;34.79
79026;DHT22;68425;44.716;37.756;2023-03-14T02:38:10;24.99;34.51
79026;DHT22;68425;44.716;37.756;2023-03-14T02:39:41;24.99;34.73
79026;DHT22;68425;44.716;37.756;2023-03-14T02:40:43;25.01;34.59
79026;DHT22;68425;44.716;37.756;2023-03-14T02:41:44;25.00;34.76
79026;DHT22;68425;44.716;37.756;2023-03-14T02:42:47;24.98;34.75
79026;DHT22;68425;44.716;37.756;2023-03-14T02:43:49;24.99;34.92
79026;DHT22;68425;44.716;37.756;2023-03-14T02:44:54;24.99;34.74
79026;DHT22;68425;44.716;37.756;2023-03-14T02:45:56;25.02;34.75
79026;DHT22;68425;44.716;37.756;2023-03-14T02:46:58;25.00;34.62
79026;DHT22;68425;44.716;37.756;2023-03-14T02:48:03;25.01;34.61
79026;DHT22;68425;44.716;37.756;2023-03-14T02:49:10;25.03;34.39
79026;DHT22;68425;44.716;37.756;2023-03-14T02:50:16;25.07;34.44
79026;DHT22;68425;44.716;37.756;2023-03-14T02:51:20;25.05;34.28
79026;DHT22;68425;44.716;37.756;2023-03-14T02:52:22;25.06;34.46
79026;DHT22;68425;44.716;37.756;2023-03-14T02:53:29;25.09;34.37
79026;DHT22;68425;44.716;37.756;2023-03-14T02:54:33;25.09;34.44
79026;DHT22;68425;44.716;37.756;2023-03-14T02:55:35;25.07;34.39
79026;DHT22;68425;44.716;37.756;2023-03-14T02:56:42;25.06;34.37
79026;DHT22;68425;44.716;37.756;2023-03-14T02:57:47;25.03;34.53
79026;DHT22;68425;44.716;37.756;2023-03-14T02:58:49;25.03;34.67
79026;DHT22;68425;44.716;37.756;2023-03-14T03:00:13;25.02;34.13
79026;DHT22;68425;44.716;37.756;2023-03-14T03:01:16;25.01;34.00
79026;DHT22;68425;44.716;37.756;2023-03-14T03:02:18;25.00;34.37
79026;DHT22;68425;44.716;37.756;2023-03-14T03:03:20;24.98;34.37
79026;DHT22;68425;44.716;37.756;2023-03-14T03:04:23;24.97;34.42
79026;DHT22;68425;44.716;37.756;2023-03-14T03:05:24;24.95;34.41
79026;DHT22;68425;44.716;37.756;2023-03-14T03:06:26;24.95;34.39
79026;DHT22;68425;44.716;37.756;2023-03-14T03:07:28;24.92;34.50
79026;DHT22;68425;44.716;37.756;2023-03-14T03:08:31;24.95;34.43
79026;DHT22;68425;44.716;37.756;2023-03-14T03:09:34;24.95;34.47
79026;DHT22;68425;44.716;37.756;2023-03-14T03:10:36;24.98;34.44
79026;DHT22;68425;44.716;37.756;2023-03-14T03:11:37;25.00;34.48
79026;DHT22;68425;44.716;37.756;2023-03-14T03:12:40;25.01;34.41
79026;DHT22;68425;44.716;37.756;2023-03-14T03:13:42;25.00;34.57
79026;DHT22;68425;44.716;37.756;2023-03-14T03:14:44;25.01;34.25
79026;DHT22;68425;44.716;37.756;2023-03-14T03:15:46;24.98;34.47
79026;DHT22;68425;44.716;37.756;2023-03-14T03:16:47;24.99;34.28
79026;DHT22;68425;44.716;37.756;2023-03-14T03:17:49;24.98;34.20
79026;DHT22;68425;44.716;37.756;2023-03-14T03:18:51;24.97;34.50
79026;DHT22;68425;44.716;37.756;2023-03-14T03:19:52;24.95;34.42
79026;DHT22;68425;44.716;37.756;2023-03-14T03:20:54;24.97;34.36
79026;DHT22;68425;44.716;37.756;2023-03-14T03:21:57;24.98;34.23
79026;DHT22;68425;44.716;37.756;2023-03-14T03:23:00;24.99;34.28
79026;DHT22;68425;44.716;37.756;2023-03-14T03:24:01;25.00;34.35
79026;DHT22;68425;44.716;37.756;2023-03-14T03:25:04;25.00;34.08
79026;DHT22;68425;44.716;37.756;2023-03-14T03:26:06;24.99;34.21
79026;DHT22;68425;44.716;37.756;2023-03-14T03:27:10;24.99;34.27
79026;DHT22;68425;44.716;37.756;2023-03-14T03:28:12;24.99;34.18
79026;DHT22;68425;44.716;37.756;2023-03-14T03:29:15;25.00;34.05
79026;DHT22;68425;44.716;37.756;2023-03-14T03:30:17;25.00;34.07
79026;DHT22;68425;44.716;37.756;2023-03-14T03:31:19;25.01;34.23
79026;DHT22;68425;44.716;37.756;2023-03-14T03:32:22;25.01;34.25
79026;DHT22;68425;44.716;37.756;2023-03-14T03:33:23;25.02;34.21
79026;DHT22;68425;44.716;37.756;2023-03-14T03:34:27;25.00;34.08
79026;DHT22;68425;44.716;37.756;2023-03-14T03:35:30;25.02;34.11
79026;DHT22;68425;44.716;37.756;2023-03-14T03:36:32;25.01;33.94
79026;DHT22;68425;44.716;37.756;2023-03-14T03:37:35;25.02;34.01
79026;DHT22;68425;44.716;37.756;2023-03-14T03:38:39;25.02;34.05
79026;DHT22;68425;44.716;37.756;2023-03-14T03:39:40;25.03;34.11
79026;DHT22;68425;44.716;37.756;2023-03-14T03:40:42;25.02;34.05
79026;DHT22;68425;44.716;37.756;2023-03-14T03:41:44;25.03;34.04
79026;DHT22;68425;44.716;37.756;2023-03-14T03:42:46;25.02;34.10
79026;DHT22;68425;44.716;37.756;2023-03-14T03:43:48;25.02;34.08
79026;DHT22;68425;44.716;37.756;2023-03-14T03:44:52;25.03;34.07
79026;DHT22;68425;44.716;37.756;2023-03-14T03:45:53;25.01;33.96
79026;DHT22;68425;44.716;37.756;2023-03-14T03:46:58;25.01;33.70
79026;DHT22;68425;44.716;37.756;2023-03-14T03:47:59;25.00;33.63
79026;DHT22;68425;44.716;37.756;2023-03-14T03:49:01;24.99;33.91
79026;DHT22;68425;44.716;37.756;2023-03-14T03:50:04;25.00;33.99
79026;DHT22;68425;44.716;37.756;2023-03-14T03:51:06;25.01;34.01
79026;DHT22;68425;44.716;37.756;2023-03-14T03:52:09;25.02;34.28
79026;DHT22;68425;44.716;37.756;2023-03-14T03:53:10;25.02;34.59
79026;DHT22;68425;44.716;37.756;2023-03-14T03:54:11;25.00;34.19
79026;DHT22;68425;44.716;37.756;2023-03-14T03:55:13;25.00;33.73
79026;DHT22;68425;44.716;37.756;2023-03-14T03:56:14;25.01;33.72
79026;DHT22;68425;44.716;37.756;2023-03-14T03:57:17;25.00;33.72
79026;DHT22;68425;44.716;37.756;2023-03-14T03:58:18;24.99;33.99
79026;DHT22;68425;44.716;37.756;2023-03-14T03:59:20;25.00;33.76
79026;DHT22;68425;44.716;37.756;2023-03-14T04:00:22;25.00;34.00
79026;DHT22;68425;44.716;37.756;2023-03-14T04:01:24;25.01;33.96
79026;DHT22;68425;44.716;37.756;2023-03-14T04:02:28;25.02;33.73
79026;DHT22;68425;44.716;37.756;2023-03-14T04:03:29;25.01;33.49
79026;DHT22;68425;44.716;37.756;2023-03-14T04:04:31;25.02;33.63
79026;DHT22;68425;44.716;37.756;2023-03-14T04:05:35;25.02;33.63
79026;DHT22;68425;44.716;37.756;2023-03-14T04:06:42;25.02;33.54
79026;DHT22;68425;44.716;37.756;2023-03-14T04:07:43;25.02;33.34
79026;DHT22;68425;44.716;37.756;2023-03-14T04:08:46;25.01;33.57
79026;DHT22;68425;44.716;37.756;2023-03-14T04:09:59;24.99;33.52
79026;DHT22;68425;44.716;37.756;2023-03-14T04:11:13;25.00;33.63
79026;DHT22;68425;44.716;37.756;2023-03-14T04:12:41;24.98;33.77
79026;DHT22;68425;44.716;37.756;2023-03-14T04:13:46;24.98;34.05
79026;DHT22;68425;44.716;37.756;2023-03-14T04:14:49;24.95;34.26
79026;DHT22;68425;44.716;37.756;2023-03-14T04:15:55;24.97;34.23
79026;DHT22;68425;44.716;37.756;2023-03-14T04:17:02;24.97;34.23
79026;DHT22;68425;44.716;37.756;2023-03-14T04:18:04;24.98;33.81
79026;DHT22;68425;44.716;37.756;2023-03-14T04:19:06;24.94;34.04
79026;DHT22;68425;44.716;37.756;2023-03-14T04:20:08;24.93;34.03
79026;DHT22;68425;44.716;37.756;2023-03-14T04:21:12;24.93;33.92
79026;DHT22;68425;44.716;37.756;2023-03-14T04:22:22;24.91;34.36
79026;DHT22;68425;44.716;37.756;2023-03-14T04:23:25;24.91;34.38
79026;DHT22;68425;44.716;37.756;2023-03-14T04:24:27;24.91;34.54
79026;DHT22;68425;44.716;37.756;2023-03-14T04:25:30;24.91;34.53
79026;DHT22;68425;44.716;37.756;2023-03-14T04:26:33;24.92;34.79
79026;DHT22;68425;44.716;37.756;2023-03-14T04:27:34;24.93;34.44
79026;DHT22;68425;44.716;37.756;2023-03-14T04:28:37;24.93;34.36
79026;DHT22;68425;44.716;37.756;2023-03-14T04:29:41;24.93;34.33
79026;DHT22;68425;44.716;37.756;2023-03-14T04:30:43;24.93;34.50
79026;DHT22;68425;44.716;37.756;2023-03-14T04:31:49;24.93;34.38
79026;DHT22;68425;44.716;37.756;2023-03-14T04:32:51;24.97;34.37
79026;DHT22;68425;44.716;37.756;2023-03-14T04:33:53;24.95;34.46
79026;DHT22;68425;44.716;37.756;2023-03-14T04:35:03;24.98;34.26
79026;DHT22;68425;44.716;37.756;2023-03-14T04:36:06;24.98;34.30
79026;DHT22;68425;44.716;37.756;2023-03-14T04:37:07;25.00;34.34
79026;DHT22;68425;44.716;37.756;2023-03-14T04:38:17;24.99;34.30
79026;DHT22;68425;44.716;37.756;2023-03-14T04:39:20;25.02;34.21
79026;DHT22;68425;44.716;37.756;2023-03-14T04:40:30;25.02;34.17
79026;DHT22;68425;44.716;37.756;2023-03-14T04:41:36;25.03;34.45
79026;DHT22;68425;44.716;37.756;2023-03-14T04:42:38;25.04;34.24
79026;DHT22;68425;44.716;37.756;2023-03-14T04:43:40;25.06;34.29
79026;DHT22;68425;44.716;37.756;2023-03-14T04:44:43;25.06;34.21
79026;DHT22;68425;44.716;37.756;2023-03-14T04:45:45;25.05;34.20
79026;DHT22;68425;44.716;37.756;2023-03-14T04:46:47;25.05;34.25
79026;DHT22;68425;44.716;37.756;2023-03-14T04:47:49;25.04;34.34
79026;DHT22;68425;44.716;37.756;2023-03-14T04:48:53;25.05;34.41
79026;DHT22;68425;44.716;37.756;2023-03-14T04:49:54;25.05;34.61
79026;DHT22;68425;44.716;37.756;2023-03-14T04:50:57;25.04;34.49
79026;DHT22;68425;44.716;37.756;2023-03-14T04:51:59;25.05;34.60
79026;DHT22;68425;44.716;37.756;2023-03-14T04:53:03;25.06;34.47
79026;DHT22;68425;44.716;37.756;2023-03-14T04:54:04;25.07;34.41
79026;DHT22;68425;44.716;37.756;2023-03-14T04:55:06;25.08;34.41
79026;DHT22;68425;44.716;37.756;2023-03-14T04:56:07;25.07;34.28
79026;DHT22;68425;44.716;37.756;2023-03-14T04:57:12;25.10;34.25
79026;DHT22;68425;44.716;37.756;2023-03-14T04:58:14;25.08;34.40
79026;DHT22;68425;44.716;37.756;2023-03-14T04:59:16;25.09;34.32
79026;DHT22;68425;44.716;37.756;2023-03-14T05:00:18;25.09;34.39
79026;DHT22;68425;44.716;37.756;2023-03-14T05:01:41;25.09;34.34
79026;DHT22;68425;44.716;37.756;2023-03-14T05:03:01;25.10;34.26
79026;DHT22;68425;44.716;37.756;2023-03-14T05:04:10;25.10;34.31
79026;DHT22;68425;44.716;37.756;2023-03-14T05:05:37;25.13;34.27
79026;DHT22;68425;44.716;37.756;2023-03-14T05:06:44;25.10;34.25
79026;DHT22;68425;44.716;37.756;2023-03-14T05:08:01;25.10;34.41
79026;DHT22;68425;44.716;37.756;2023-03-14T05:09:14;25.12;34.50
79026;DHT22;68425;44.716;37.756;2023-03-14T05:10:31;25.12;34.45
79026;DHT22;68425;44.716;37.756;2023-03-14T05:11:50;25.10;34.26
79026;DHT22;68425;44.716;37.756;2023-03-14T05:13:10;25.09;34.21
79026;DHT22;68425;44.716;37.756;2023-03-14T05:14:29;25.09;34.27
79026;DHT22;68425;44.716;37.756;2023-03-14T05:16:10;25.09;34.34
79026;DHT22;68425;44.716;37.756;2023-03-14T05:17:21;25.09;34.41
79026;DHT22;68425;44.716;37.756;2023-03-14T05:18:47;25.08;34.47
79026;DHT22;68425;44.716;37.756;2023-03-14T05:20:06;25.08;34.32
79026;DHT22;68425;44.716;37.756;2023-03-14T05:21:46;25.10;34.27
79026;DHT22;68425;44.716;37.756;2023-03-14T05:23:20;25.10;34.47
79026;DHT22;68425;44.716;37.756;2023-03-14T05:24:54;25.08;34.37
79026;DHT22;68425;44.716;37.756;2023-03-14T05:26:33;25.08;34.32
79026;DHT22;68425;44.716;37.756;2023-03-14T05:27:55;25.08;34.21
79026;DHT22;68425;44.716;37.756;2023-03-14T05:29:34;25.12;34.31
79026;DHT22;68425;44.716;37.756;2023-03-14T05:30:56;25.07;34.33
79026;DHT22;68425;44.716;37.756;2023-03-14T05:32:23;25.05;34.55
79026;DHT22;68425;44.716;37.756;2023-03-14T05:33:42;25.04;34.34
79026;DHT22;68425;44.716;37.756;2023-03-14T05:35:02;25.03;34.53
79026;DHT22;68425;44.716;37.756;2023-03-14T05:36:36;25.04;34.50
79026;DHT22;68425;44.716;37.756;2023-03-14T05:37:56;25.04;34.37
79026;DHT22;68425;44.716;37.756;2023-03-14T05:39:09;25.02;34.46
79026;DHT22;68425;44.716;37.756;2023-03-14T05:40:29;25.03;34.45
79026;DHT22;68425;44.716;37.756;2023-03-14T05:41:40;25.02;34.37
79026;DHT22;68425;44.716;37.756;2023-03-14T05:42:52;25.02;34.38
79026;DHT22;68425;44.716;37.756;2023-03-14T05:44:12;25.02;34.46
79026;DHT22;68425;44.716;37.756;2023-03-14T05:45:30;25.00;34.57
79026;DHT22;68425;44.716;37.756;2023-03-14T05:46:50;25.00;34.49
79026;DHT22;68425;44.716;37.756;2023-03-14T05:48:12;25.02;34.47
79026;DHT22;68425;44.716;37.756;2023-03-14T05:49:16;25.00;34.38
79026;DHT22;68425;44.716;37.756;2023-03-14T05:50:35;25.01;34.53
79026;DHT22;68425;44.716;37.756;2023-03-14T05:51:59;25.00;34.48
79026;DHT22;68425;44.716;37.756;2023-03-14T05:53:20;24.99;34.34
79026;DHT22;68425;44.716;37.756;2023-03-14T05:54:24;25.01;34.25
79026;DHT22;68425;44.716;37.756;2023-03-14T05:55:53;25.02;34.28
79026;DHT22;68425;44.716;37.756;2023-03-14T05:57:14;25.03;34.45
79026;DHT22;68425;44.716;37.756;2023-03-14T05:58:27;25.02;34.44
79026;DHT22;68425;44.716;37.756;2023-03-14T05:59:54;25.03;34.34
79026;DHT22;68425;44.716;37.756;2023-03-14T06:01:14;25.03;34.31
79026;DHT22;68425;44.716;37.756;2023-03-14T06:02:34;25.02;34.47
79026;DHT22;68425;44.716;37.756;2023-03-14T06:03:43;25.02;34.67
79026;DHT22;68425;44.716;37.756;2023-03-14T06:04:44;25.00;34.46
79026;DHT22;68425;44.716;37.756;2023-03-14T06:05:46;24.99;34.50
79026;DHT22;68425;44.716;37.756;2023-03-14T06:06:47;25.00;34.57
79026;DHT22;68425;44.716;37.756;2023-03-14T06:07:49;24.99;34.47
79026;DHT22;68425;44.716;37.756;2023-03-14T06:08:51;24.97;34.39
79026;DHT22;68425;44.716;37.756;2023-03-14T06:09:52;24.97;34.41
79026;DHT22;68425;44.716;37.756;2023-03-14T06:10:54;24.95;34.40
79026;DHT22;68425;44.716;37.756;2023-03-14T06:12:01;24.97;34.35
79026;DHT22;68425;44.716;37.756;2023-03-14T06:13:06;24.97;34.55
79026;DHT22;68425;44.716;37.756;2023-03-14T06:14:08;24.97;34.34
79026;DHT22;68425;44.716;37.756;2023-03-14T06:15:11;24.97;34.41
79026;DHT22;68425;44.716;37.756;2023-03-14T06:16:13;24.97;34.43
79026;DHT22;68425;44.716;37.756;2023-03-14T06:17:15;24.98;34.34
79026;DHT22;68425;44.716;37.756;2023-03-14T06:18:24;25.01;34.31
79026;DHT22;68425;44.716;37.756;2023-03-14T06:19:26;25.01;34.42
79026;DHT22;68425;44.716;37.756;2023-03-14T06:20:28;25.03;34.18
79026;DHT22;68425;44.716;37.756;2023-03-14T06:21:29;25.02;34.19
79026;DHT22;68425;44.716;37.756;2023-03-14T06:22:31;25.02;34.15
79026;DHT22;68425;44.716;37.756;2023-03-14T06:23:33;25.02;34.12
79026;DHT22;68425;44.716;37.756;2023-03-14T06:24:35;25.02;34.05
79026;DHT22;68425;44.716;37.756;2023-03-14T06:25:36;25.02;34.33
79026;DHT22;68425;44.716;37.756;2023-03-14T06:26:38;25.01;34.32
79026;DHT22;68425;44.716;37.756;2023-03-14T06:27:39;25.02;34.15
79026;DHT22;68425;44.716;37.756;2023-03-14T06:28:40;25.01;34.35
79026;DHT22;68425;44.716;37.756;2023-03-14T06:29:43;25.00;34.32
79026;DHT22;68425;44.716;37.756;2023-03-14T06:30:44;25.01;34.36
79026;DHT22;68425;44.716;37.756;2023-03-14T06:31:47;25.02;34.60
79026;DHT22;68425;44.716;37.756;2023-03-14T06:32:54;25.03;34.39
79026;DHT22;68425;44.716;37.756;2023-03-14T06:33:57;25.04;34.21
79026;DHT22;68425;44.716;37.756;2023-03-14T06:35:02;25.05;34.08
79026;DHT22;68425;44.716;37.756;2023-03-14T06:36:09;25.06;34.13
79026;DHT22;68425;44.716;37.756;2023-03-14T06:37:11;25.05;33.99
79026;DHT22;68425;44.716;37.756;2023-03-14T06:38:12;25.05;34.15
79026;DHT22;68425;44.716;37.756;2023-03-14T06:39:14;25.05;34.05
79026;DHT22;68425;44.716;37.756;2023-03-14T06:40:19;25.06;33.99
79026;DHT22;68425;44.716;37.756;2023-03-14T06:41:31;25.06;33.96
79026;DHT22;68425;44.716;37.756;2023-03-14T06:42:34;25.06;33.99
79026;DHT22;68425;44.716;37.756;2023-03-14T06:43:35;25.06;33.96
79026;DHT22;68425;44.716;37.756;2023-03-14T06:44:38;25.07;33.98
79026;DHT22;68425;44.716;37.756;2023-03-14T06:45:39;25.07;33.86
79026;DHT22;68425;44.716;37.756;2023-03-14T06:46:41;25.06;33.98
79026;DHT22;68425;44.716;37.756;2023-03-14T06:47:42;25.04;33.89
79026;DHT22;68425;44.716;37.756;2023-03-14T06:48:44;25.03;34.05
79026;DHT22;68425;44.716;37.756;2023-03-14T06:49:46;25.04;34.07
79026;DHT22;68425;44.716;37.756;2023-03-14T06:50:48;25.03;34.00
79026;DHT22;68425;44.716;37.756;2023-03-14T06:51:50;25.02;33.98
79026;DHT22;68425;44.716;37.756;2023-03-14T06:52:51;25.01;33.98
79026;DHT22;68425;44.716;37.756;2023-03-14T06:53:57;25.02;33.93
79026;DHT22;68425;44.716;37.756;2023-03-14T06:55:02;25.03;33.92
79026;DHT22;68425;44.716;37.756;2023-03-14T06:56:04;25.03;33.96
79026;DHT22;68425;44.716;37.756;2023-03-14T06:57:07;25.04;33.83
79026;DHT22;68425;44.716;37.756;2023-03-14T06:58:09;25.06;33.83
79026;DHT22;68425;44.716;37.756;2023-03-14T06:59:16;25.07;33.79
79026;DHT22;68425;44.716;37.756;2023-03-14T07:00:21;25.08;33.79